Time;durP1;ratioP1;P1;durP2;ratioP2;P2;SDS_P1;SDS_P2;PMS_P1;PMS_P2;Temp;Humidity;BMP_temperature;BMP_pressure;BME280_temperature;BME280_humidity;BME280_pressure;Samples;Min_cycle;Max_cycle;Signal;HPM_P1;HPM_P2
2022/06/07 00:01:53;;;;;;;4.28;3.88;;;16.80;99.90;;;;;;4095749;29;20239;-69
2022/06/07 00:03:54;;;;;;;3.75;3.17;;;16.80;99.90;;;;;;4097069;29;20031;-69
2022/06/07 00:05:55;;;;;;;4.68;3.63;;;16.80;99.90;;;;;;4096225;29;20069;-69
2022/06/07 00:07:56;;;;;;;4.60;3.67;;;16.80;99.90;;;;;;4080080;29;20032;-69
2022/06/07 00:09:57;;;;;;;4.40;4.00;;;16.70;99.90;;;;;;4080200;29;20034;-69
2022/06/07 00:11:58;;;;;;;4.65;4.18;;;16.70;99.90;;;;;;4095818;29;20456;-70
2022/06/07 00:13:58;;;;;;;3.85;3.47;;;16.60;99.90;;;;;;4096983;29;20106;-69
2022/06/07 00:15:59;;;;;;;5.22;3.78;;;16.60;99.90;;;;;;4096316;29;20039;-69
2022/06/07 00:18:00;;;;;;;3.97;3.58;;;16.60;99.90;;;;;;4097009;29;20035;-69
2022/06/07 00:20:01;;;;;;;4.15;3.72;;;16.50;99.90;;;;;;4096755;29;20483;-69
2022/06/07 00:22:03;;;;;;;4.72;3.60;;;16.40;99.90;;;;;;4096318;29;20474;-69
2022/06/07 00:24:04;;;;;;;4.38;3.60;;;16.40;99.90;;;;;;4096480;29;20027;-70
2022/06/07 00:26:05;;;;;;;4.93;3.80;;;16.30;99.90;;;;;;4097893;28;20445;-69
2022/06/07 00:28:06;;;;;;;4.53;4.05;;;16.30;99.90;;;;;;4100224;28;20067;-69
2022/06/07 00:30:08;;;;;;;4.15;3.75;;;16.30;99.90;;;;;;4099979;28;20047;-69
2022/06/07 00:32:08;;;;;;;5.15;4.10;;;16.30;99.90;;;;;;4100081;28;20043;-69
2022/06/07 00:34:10;;;;;;;5.15;4.38;;;16.30;99.90;;;;;;4100174;28;20058;-69
2022/06/07 00:36:11;;;;;;;4.18;3.65;;;16.30;99.90;;;;;;4099500;28;20031;-69
2022/06/07 00:38:12;;;;;;;5.13;4.32;;;16.30;99.90;;;;;;4100251;28;20031;-68
2022/06/07 00:40:13;;;;;;;4.95;4.32;;;16.20;99.90;;;;;;4099810;28;20038;-68
2022/06/07 00:42:15;;;;;;;5.82;4.65;;;16.30;99.90;;;;;;4099895;28;20042;-68
2022/06/07 00:44:24;;;;;;;6.32;5.25;;;16.30;99.90;;;;;;4098701;29;20061;-68
2022/06/07 00:46:25;;;;;;;5.30;4.78;;;16.20;99.90;;;;;;4098792;28;20050;-68
2022/06/07 00:48:26;;;;;;;5.40;4.55;;;16.10;99.90;;;;;;4099444;28;20043;-68
2022/06/07 00:50:32;;;;;;;5.45;4.75;;;16.10;99.90;;;;;;4098755;29;20039;-68
2022/06/07 00:52:35;;;;;;;6.47;5.32;;;16.10;99.90;;;;;;4098532;29;20395;-70
2022/06/07 00:54:36;;;;;;;;;;;16.10;99.90;;;;;;4099608;29;20124;-68
2022/06/07 00:56:36;;;;;;;6.15;5.47;;;16.00;99.90;;;;;;4098624;29;20380;-68
2022/06/07 00:58:39;;;;;;;6.20;5.60;;;16.00;99.90;;;;;;4099193;29;20046;-69
2022/06/07 01:00:39;;;;;;;6.75;5.20;;;16.00;99.90;;;;;;4098638;29;20070;-68
2022/06/07 01:02:40;;;;;;;6.90;5.95;;;16.00;99.90;;;;;;4098903;29;20047;-68
2022/06/07 01:04:40;;;;;;;8.00;6.10;;;16.00;99.90;;;;;;4098976;29;20394;-68
2022/06/07 01:11:20;;;;;;;7.22;6.50;;;15.90;99.90;;;;;;4097377;29;20031;-68
2022/06/07 01:13:23;;;;;;;6.65;5.95;;;15.90;99.90;;;;;;4099081;29;20374;-68
2022/06/07 01:15:23;;;;;;;7.50;6.55;;;15.90;99.90;;;;;;4098431;29;20402;-68
2022/06/07 01:17:24;;;;;;;7.57;6.45;;;15.90;99.90;;;;;;4098638;29;20111;-68
2022/06/07 01:19:25;;;;;;;6.78;6.07;;;15.90;99.90;;;;;;4098442;29;20418;-68
2022/06/07 01:21:34;;;;;;;9.63;6.18;;;15.90;99.90;;;;;;4095274;29;20039;-68
2022/06/07 01:23:35;;;;;;;7.75;6.68;;;15.90;99.90;;;;;;4096504;29;20094;-68
2022/06/07 01:25:36;;;;;;;8.45;7.07;;;15.90;99.90;;;;;;4097670;29;20075;-68
2022/06/07 01:27:37;;;;;;;8.02;6.65;;;15.80;99.90;;;;;;4097722;29;20067;-69
2022/06/07 01:29:38;;;;;;;6.80;6.10;;;15.80;99.90;;;;;;4098380;29;20426;-68
2022/06/07 01:31:39;;;;;;;7.70;6.22;;;15.80;99.90;;;;;;4098380;29;20491;-68
2022/06/07 01:33:39;;;;;;;9.13;6.88;;;15.80;99.90;;;;;;4098564;29;20056;-68
2022/06/07 01:35:40;;;;;;;7.05;6.35;;;15.70;99.90;;;;;;4098000;29;20063;-69
2022/06/07 01:37:40;;;;;;;8.65;6.50;;;15.70;99.90;;;;;;4098243;28;20126;-68
2022/06/07 01:42:03;;;;;;;7.90;6.40;;;15.70;99.90;;;;;;4097063;29;20082;-69
2022/06/07 01:44:04;;;;;;;7.50;6.55;;;15.60;99.90;;;;;;4098171;29;20406;-68
2022/06/07 01:46:05;;;;;;;6.93;5.90;;;15.60;99.90;;;;;;4097943;29;20115;-69
2022/06/07 01:48:06;;;;;;;8.13;6.85;;;15.60;99.90;;;;;;4098319;29;21246;-68
2022/06/07 01:50:08;;;;;;;8.40;5.57;;;15.60;99.90;;;;;;4078580;29;20035;-69
2022/06/07 01:52:10;;;;;;;6.32;5.63;;;15.60;99.90;;;;;;4098232;29;20082;-69
2022/06/07 01:54:13;;;;;;;7.20;5.67;;;15.60;99.90;;;;;;4098131;29;20042;-68
2022/06/07 01:56:16;;;;;;;5.72;5.13;;;15.60;99.90;;;;;;4097726;29;20032;-68
2022/06/07 01:58:16;;;;;;;8.15;5.95;;;15.60;99.90;;;;;;4098236;29;20090;-68
2022/06/07 02:00:17;;;;;;;6.70;5.30;;;15.60;99.90;;;;;;4097756;29;20056;-68
2022/06/07 02:02:18;;;;;;;6.03;4.93;;;15.60;99.90;;;;;;4098354;29;20031;-69
2022/06/07 02:04:21;;;;;;;6.22;5.20;;;15.60;99.90;;;;;;4098492;29;20055;-68
2022/06/07 02:06:22;;;;;;;6.38;5.32;;;15.60;99.90;;;;;;4098361;29;20125;-68
2022/06/07 02:08:23;;;;;;;6.80;4.90;;;15.60;99.90;;;;;;4098390;29;20027;-68
2022/06/07 02:10:24;;;;;;;6.55;5.53;;;15.60;99.90;;;;;;4098034;29;20041;-68
2022/06/07 02:12:24;;;;;;;6.70;5.00;;;15.60;99.90;;;;;;4098596;29;20066;-68
2022/06/07 02:14:25;;;;;;;7.53;4.82;;;15.60;99.90;;;;;;4098331;29;20551;-68
2022/06/07 02:16:26;;;;;;;8.30;4.72;;;15.50;99.90;;;;;;4097903;28;20035;-68
2022/06/07 02:18:27;;;;;;;5.78;4.65;;;15.50;99.90;;;;;;4098486;29;20050;-68
2022/06/07 02:20:28;;;;;;;6.03;4.75;;;15.50;99.90;;;;;;4097782;29;20035;-69
2022/06/07 02:22:28;;;;;;;6.47;4.97;;;15.40;99.90;;;;;;4098481;29;20039;-68
2022/06/07 02:24:29;;;;;;;8.07;4.53;;;15.40;99.90;;;;;;4098111;28;20039;-68
2022/06/07 02:26:32;;;;;;;7.90;4.50;;;15.40;99.90;;;;;;4097892;28;20043;-69
2022/06/07 02:28:37;;;;;;;5.80;4.70;;;15.40;99.90;;;;;;4098622;28;20050;-68
2022/06/07 02:30:40;;;;;;;5.93;4.40;;;15.40;99.90;;;;;;4097636;28;20480;-68
2022/06/07 02:32:41;;;;;;;;;;;15.40;99.90;;;;;;4098711;28;20039;-68
2022/06/07 02:34:46;;;;;;;7.07;4.53;;;15.30;99.90;;;;;;4098505;28;20349;-68
2022/06/07 02:36:52;;;;;;;6.70;4.45;;;15.30;99.90;;;;;;4098115;28;20443;-68
2022/06/07 02:38:53;;;;;;;5.03;4.35;;;15.30;99.90;;;;;;4098355;28;20143;-68
2022/06/07 02:40:54;;;;;;;7.43;4.35;;;15.30;99.90;;;;;;4097602;28;20114;-68
2022/06/07 02:42:55;;;;;;;5.20;3.97;;;15.30;99.90;;;;;;4096936;29;20167;-68
2022/06/07 02:44:57;;;;;;;5.38;3.80;;;15.30;99.90;;;;;;4098215;28;20046;-68
2022/06/07 02:46:57;;;;;;;4.67;4.00;;;15.20;99.90;;;;;;4097352;29;20027;-68
2022/06/07 02:48:58;;;;;;;6.55;4.68;;;15.20;99.90;;;;;;4097556;28;20172;-68
2022/06/07 02:50:59;;;;;;;6.20;3.90;;;15.30;99.90;;;;;;4097188;29;20027;-68
2022/06/07 02:52:59;;;;;;;8.52;4.28;;;15.20;99.90;;;;;;4097694;29;20039;-69
2022/06/07 02:55:00;;;;;;;4.70;3.83;;;15.20;99.90;;;;;;4097706;29;20035;-68
2022/06/07 02:57:00;;;;;;;5.57;4.05;;;15.20;99.90;;;;;;4097198;29;20031;-68
2022/06/07 02:59:01;;;;;;;4.28;3.60;;;15.10;99.90;;;;;;4097966;29;20422;-68
2022/06/07 03:01:02;;;;;;;5.15;3.85;;;15.00;99.90;;;;;;4096149;29;20144;-68
2022/06/07 03:03:03;;;;;;;5.15;3.53;;;15.00;99.90;;;;;;4096612;29;20093;-68
2022/06/07 03:05:04;;;;;;;6.20;4.03;;;14.90;99.90;;;;;;4097490;29;20043;-69
2022/06/07 03:07:05;;;;;;;4.13;3.30;;;14.90;99.90;;;;;;4096606;29;20062;-69
2022/06/07 03:09:06;;;;;;;5.97;3.38;;;14.90;99.90;;;;;;4097190;29;20035;-69
2022/06/07 03:11:06;;;;;;;4.72;3.22;;;14.80;99.90;;;;;;4096636;29;20341;-69
2022/06/07 03:13:07;;;;;;;7.43;3.75;;;14.80;99.90;;;;;;4086865;28;20118;-69
2022/06/07 03:15:08;;;;;;;7.50;4.05;;;14.80;99.90;;;;;;4096515;28;20035;-69
2022/06/07 03:17:09;;;;;;;5.78;3.40;;;14.80;99.90;;;;;;4096907;29;20031;-68
2022/06/07 03:19:10;;;;;;;4.43;2.92;;;14.80;99.90;;;;;;4096966;29;20054;-69
2022/06/07 03:21:10;;;;;;;6.32;3.38;;;14.80;99.90;;;;;;4096431;28;20062;-68
2022/06/07 03:23:11;;;;;;;3.72;3.08;;;14.80;99.90;;;;;;4094466;29;20047;-68
2022/06/07 03:25:11;;;;;;;4.30;2.80;;;14.80;99.90;;;;;;4096370;29;20031;-69
2022/06/07 03:27:13;;;;;;;5.97;3.42;;;14.80;99.90;;;;;;4097068;29;20512;-68
2022/06/07 03:29:14;;;;;;;5.88;3.10;;;14.70;99.90;;;;;;4096858;29;20031;-68
2022/06/07 03:31:16;;;;;;;6.65;3.08;;;14.70;99.90;;;;;;4095983;29;20043;-68
2022/06/07 03:33:16;;;;;;;4.55;2.88;;;14.70;99.90;;;;;;4096916;29;20039;-68
2022/06/07 03:35:17;;;;;;;4.25;2.70;;;14.70;99.90;;;;;;4096345;29;20475;-68
2022/06/07 03:37:18;;;;;;;5.15;3.05;;;14.70;99.90;;;;;;4096670;29;20554;-68
2022/06/07 03:39:18;;;;;;;5.95;2.97;;;14.70;99.90;;;;;;4096887;29;20035;-68
2022/06/07 03:41:23;;;;;;;6.13;3.33;;;14.70;99.90;;;;;;4096260;29;20031;-68
2022/06/07 03:43:23;;;;;;;7.90;3.00;;;14.80;99.90;;;;;;4097018;29;20376;-68
2022/06/07 03:45:24;;;;;;;3.65;2.47;;;14.80;99.90;;;;;;4096570;29;20038;-68
2022/06/07 03:47:24;;;;;;;6.43;2.70;;;14.70;99.90;;;;;;4096945;29;20122;-67
2022/06/07 03:49:25;;;;;;;5.45;2.75;;;14.70;99.90;;;;;;4096780;29;20043;-68
2022/06/07 03:51:28;;;;;;;3.30;2.55;;;14.80;99.90;;;;;;4096135;29;20558;-68
2022/06/07 03:53:29;;;;;;;4.57;2.50;;;14.80;99.90;;;;;;4096694;29;20043;-67
2022/06/07 03:55:29;;;;;;;4.93;2.65;;;14.80;99.90;;;;;;4096180;29;20049;-68
2022/06/07 03:57:30;;;;;;;3.42;2.40;;;14.80;99.90;;;;;;4096566;29;20040;-68
2022/06/07 03:59:30;;;;;;;2.50;2.20;;;14.80;99.90;;;;;;4096133;29;20043;-68
2022/06/07 04:01:31;;;;;;;4.82;2.80;;;14.80;99.90;;;;;;4095360;29;20125;-69
2022/06/07 04:03:32;;;;;;;3.88;2.63;;;14.80;99.90;;;;;;4095987;29;20050;-69
2022/06/07 04:05:37;;;;;;;4.35;2.33;;;14.80;99.90;;;;;;4096057;29;20064;-69
2022/06/07 04:09:57;;;;;;;3.05;2.42;;;14.90;99.90;;;;;;4094842;28;20031;-68
2022/06/07 04:11:57;;;;;;;5.47;2.50;;;14.90;99.90;;;;;;4096032;29;20387;-68
2022/06/07 04:13:58;;;;;;;4.80;2.47;;;14.90;99.90;;;;;;4094734;28;20039;-68
2022/06/07 04:16:05;;;;;;;6.38;2.70;;;14.90;99.90;;;;;;4093745;28;20040;-68
2022/06/07 04:18:06;;;;;;;4.93;2.55;;;14.90;99.90;;;;;;4093086;28;20414;-68
2022/06/07 04:20:07;;;;;;;3.65;2.13;;;14.90;99.90;;;;;;4092681;28;20039;-69
2022/06/07 04:22:08;;;;;;;3.13;2.05;;;14.80;99.90;;;;;;4096327;29;20058;-69
2022/06/07 04:24:09;;;;;;;3.00;2.40;;;14.90;99.90;;;;;;4096261;29;20035;-68
2022/06/07 04:26:12;;;;;;;4.90;2.15;;;14.90;99.90;;;;;;4095879;29;20110;-69
2022/06/07 04:28:13;;;;;;;4.78;2.65;;;14.90;99.90;;;;;;4094108;29;20075;-69
2022/06/07 04:30:14;;;;;;;7.38;2.60;;;14.80;99.90;;;;;;4096250;29;20118;-69
2022/06/07 04:32:16;;;;;;;4.40;2.33;;;14.90;99.90;;;;;;4096139;28;20039;-68
2022/06/07 04:34:18;;;;;;;5.85;2.42;;;14.90;99.90;;;;;;4096736;29;20501;-68
2022/06/07 04:36:22;;;;;;;5.63;2.42;;;14.90;99.90;;;;;;4096117;29;20042;-68
2022/06/07 04:38:22;;;;;;;3.95;2.35;;;14.90;99.90;;;;;;4088697;28;20524;-68
2022/06/07 04:40:24;;;;;;;3.97;2.65;;;15.00;99.90;;;;;;4112137;28;20089;-68
2022/06/07 04:42:25;;;;;;;2.60;1.92;;;15.00;99.90;;;;;;4108171;28;20055;-68
2022/06/07 04:44:25;;;;;;;3.70;2.30;;;15.00;99.90;;;;;;4096699;28;20047;-68
2022/06/07 04:46:27;;;;;;;4.85;2.38;;;15.00;99.90;;;;;;4095634;28;20047;-68
2022/06/07 04:48:27;;;;;;;3.08;2.15;;;15.00;99.90;;;;;;4096112;28;20044;-68
2022/06/07 04:50:28;;;;;;;5.32;2.65;;;15.00;99.90;;;;;;4095835;28;20533;-68
2022/06/07 04:52:29;;;;;;;4.13;2.25;;;15.00;99.90;;;;;;4094456;28;20058;-68
2022/06/07 04:54:29;;;;;;;5.90;2.58;;;15.00;99.90;;;;;;4096358;29;20044;-68
2022/06/07 04:56:33;;;;;;;6.50;2.58;;;15.10;99.90;;;;;;4096658;28;20680;-68
2022/06/07 04:58:33;;;;;;;4.65;2.38;;;15.00;99.90;;;;;;4095534;29;20054;-68
2022/06/07 05:00:34;;;;;;;4.35;2.60;;;15.10;99.90;;;;;;4093202;28;20031;-68
2022/06/07 05:02:35;;;;;;;6.75;3.17;;;15.00;99.90;;;;;;4096605;29;20486;-68
2022/06/07 05:04:36;;;;;;;4.65;2.85;;;15.00;99.90;;;;;;4096455;29;20043;-68
2022/06/07 05:06:39;;;;;;;5.03;2.90;;;15.10;99.90;;;;;;4095830;29;20490;-69
2022/06/07 05:08:40;;;;;;;3.90;2.90;;;15.10;99.90;;;;;;4096554;29;20043;-68
2022/06/07 05:10:41;;;;;;;7.03;2.60;;;15.10;99.90;;;;;;4095936;29;20039;-69
2022/06/07 05:12:42;;;;;;;3.88;2.78;;;15.10;99.90;;;;;;4098610;28;20486;-69
2022/06/07 05:14:44;;;;;;;3.88;2.67;;;15.20;99.90;;;;;;4098699;28;20554;-71
2022/06/07 05:16:45;;;;;;;5.30;2.58;;;15.20;99.90;;;;;;4081306;29;20103;-71
2022/06/07 05:18:47;;;;;;;5.10;2.83;;;15.20;99.90;;;;;;4094709;28;20058;-71
2022/06/07 05:20:48;;;;;;;3.55;2.33;;;15.20;99.90;;;;;;4095278;28;20035;-71
2022/06/07 05:22:49;;;;;;;4.00;2.47;;;15.20;99.90;;;;;;4095521;28;20381;-71
2022/06/07 05:24:49;;;;;;;4.18;2.47;;;15.20;99.90;;;;;;4103101;28;20043;-70
2022/06/07 05:26:54;;;;;;;3.63;2.28;;;15.20;99.90;;;;;;4078625;29;20095;-70
2022/06/07 05:28:55;;;;;;;6.63;2.58;;;15.20;99.90;;;;;;4094021;28;20489;-70
2022/06/07 05:30:55;;;;;;;4.10;2.58;;;15.20;99.90;;;;;;4095430;29;20058;-70
2022/06/07 05:32:56;;;;;;;9.32;2.72;;;15.20;99.90;;;;;;4095739;28;20507;-70
2022/06/07 05:34:56;;;;;;;4.65;2.35;;;15.30;99.90;;;;;;4095825;28;20047;-71
2022/06/07 05:36:57;;;;;;;6.55;2.35;;;15.30;99.90;;;;;;4095089;28;20042;-70
2022/06/07 05:38:58;;;;;;;5.57;2.30;;;15.30;99.90;;;;;;4095529;28;20122;-70
2022/06/07 05:40:58;;;;;;;4.18;2.65;;;15.30;99.90;;;;;;4094940;28;20509;-71
2022/06/07 05:42:59;;;;;;;5.75;2.65;;;15.30;99.90;;;;;;4095613;28;20498;-71
2022/06/07 05:45:00;;;;;;;7.63;2.50;;;15.30;99.90;;;;;;4095112;28;20122;-71
2022/06/07 05:47:00;;;;;;;4.68;2.53;;;15.30;99.90;;;;;;4094183;28;20086;-70
2022/06/07 05:49:01;;;;;;;3.95;2.15;;;15.30;99.90;;;;;;4095276;28;20039;-71
2022/06/07 05:51:02;;;;;;;6.65;2.70;;;15.40;99.90;;;;;;4094320;28;20031;-72
2022/06/07 05:53:04;;;;;;;5.47;2.65;;;15.40;99.90;;;;;;4092981;28;20093;-71
2022/06/07 05:55:05;;;;;;;4.80;2.13;;;15.50;99.90;;;;;;4078040;29;20049;-71
2022/06/07 05:57:07;;;;;;;3.03;1.98;;;15.40;99.90;;;;;;4094499;28;20082;-71
2022/06/07 05:59:08;;;;;;;3.80;2.05;;;15.50;99.90;;;;;;4094188;28;20043;-71
2022/06/07 06:01:09;;;;;;;5.00;2.45;;;15.60;99.90;;;;;;4094727;28;20090;-71
2022/06/07 06:03:10;;;;;;;7.20;2.45;;;15.80;99.90;;;;;;4078372;29;20087;-71
2022/06/07 06:05:11;;;;;;;6.13;2.22;;;16.00;99.90;;;;;;4096436;28;20058;-71
2022/06/07 06:07:11;;;;;;;3.40;2.08;;;16.30;99.90;;;;;;4094363;28;20051;-71
2022/06/07 06:11:32;;;;;;;4.18;2.10;;;17.00;99.90;;;;;;4094667;29;20379;-71
2022/06/07 06:13:35;;;;;;;2.97;1.80;;;17.40;99.90;;;;;;4093194;28;20042;-72
2022/06/07 06:15:35;;;;;;;4.35;2.22;;;17.60;99.90;;;;;;4094639;28;20259;-71
2022/06/07 06:17:36;;;;;;;3.63;2.05;;;17.80;99.90;;;;;;4095170;28;20482;-71
2022/06/07 06:19:37;;;;;;;5.30;2.00;;;18.10;99.90;;;;;;4082919;28;20039;-71
2022/06/07 06:21:40;;;;;;;6.38;2.10;;;18.10;99.90;;;;;;4094555;28;20479;-72
2022/06/07 06:23:40;;;;;;;3.78;1.77;;;18.30;99.90;;;;;;4093882;28;20438;-71
2022/06/07 06:25:41;;;;;;;3.42;1.80;;;18.60;99.90;;;;;;4093808;28;20027;-70
2022/06/07 06:27:42;;;;;;;3.53;1.80;;;18.70;99.90;;;;;;4077805;29;20040;-71
2022/06/07 06:29:44;;;;;;;4.13;1.85;;;18.80;99.90;;;;;;4094223;28;20031;-70
2022/06/07 06:31:46;;;;;;;5.95;2.50;;;19.00;99.90;;;;;;4077059;29;20589;-71
2022/06/07 06:33:49;;;;;;;4.75;2.40;;;18.90;99.90;;;;;;4078284;29;20491;-72
2022/06/07 06:35:53;;;;;;;;;;;18.80;99.90;;;;;;4078117;29;20035;-71
2022/06/07 06:37:54;;;;;;;3.63;1.75;;;18.90;99.90;;;;;;4094836;28;19997;-71
2022/06/07 06:39:57;;;;;;;4.05;1.83;;;18.90;99.90;;;;;;4095270;28;20521;-72
2022/06/07 06:41:58;;;;;;;3.45;1.73;;;19.00;99.90;;;;;;4089318;28;20047;-71
2022/06/07 06:44:01;;;;;;;3.55;1.95;;;19.00;99.90;;;;;;4092304;28;20039;-71
2022/06/07 06:46:06;;;;;;;3.60;2.20;;;18.90;99.90;;;;;;4094291;28;20032;-71
2022/06/07 06:48:09;;;;;;;5.55;2.10;;;19.10;99.90;;;;;;4082100;28;20039;-71
2022/06/07 06:50:09;;;;;;;4.40;2.05;;;19.20;99.90;;;;;;4089935;28;20054;-71
2022/06/07 06:52:10;;;;;;;3.60;2.05;;;19.20;99.90;;;;;;4092443;28;20479;-71
2022/06/07 06:54:13;;;;;;;3.42;1.85;;;19.10;99.90;;;;;;4094700;28;20059;-71
2022/06/07 06:56:18;;;;;;;3.17;1.77;;;19.20;99.90;;;;;;4093627;28;20037;-70
2022/06/07 06:58:19;;;;;;;4.88;2.13;;;19.30;99.90;;;;;;4094383;28;20031;-70
2022/06/07 07:00:20;;;;;;;4.13;1.80;;;19.30;99.90;;;;;;4075903;29;20038;-70
2022/06/07 07:02:20;;;;;;;5.55;2.38;;;19.40;99.90;;;;;;4093504;28;20031;-70
2022/06/07 07:04:21;;;;;;;5.93;2.40;;;19.40;99.90;;;;;;4075431;29;20035;-71
2022/06/07 07:06:23;;;;;;;5.35;2.00;;;19.40;99.90;;;;;;4091877;28;20078;-71
2022/06/07 07:08:25;;;;;;;6.80;2.67;;;19.50;99.90;;;;;;4093862;28;20391;-71
2022/06/07 07:10:25;;;;;;;6.57;2.30;;;19.50;99.90;;;;;;4093037;28;20067;-71
2022/06/07 07:12:26;;;;;;;4.70;2.30;;;19.50;99.90;;;;;;4093787;28;20103;-71
2022/06/07 07:14:28;;;;;;;9.10;2.72;;;19.60;99.90;;;;;;4094051;28;20040;-71
2022/06/07 07:16:32;;;;;;;5.50;2.22;;;19.60;99.90;;;;;;4093515;28;20035;-71
2022/06/07 07:18:32;;;;;;;5.75;2.60;;;19.70;99.90;;;;;;4094168;28;20093;-71
2022/06/07 07:20:33;;;;;;;3.50;2.13;;;19.70;99.90;;;;;;4092319;28;20086;-72
2022/06/07 07:22:35;;;;;;;4.97;2.83;;;19.80;99.90;;;;;;4093920;28;20403;-71
2022/06/07 07:24:36;;;;;;;6.10;2.67;;;19.80;99.90;;;;;;4076873;29;20041;-71
2022/06/07 07:26:37;;;;;;;7.13;3.28;;;19.80;99.90;;;;;;4094800;28;20059;-71
2022/06/07 07:28:40;;;;;;;5.45;3.00;;;19.90;99.90;;;;;;4085605;28;20063;-71
2022/06/07 07:30:40;;;;;;;;;;;19.90;99.90;;;;;;4092418;28;20435;-71
2022/06/07 07:32:41;;;;;;;6.70;3.60;;;20.00;99.90;;;;;;4093341;28;19917;-70
2022/06/07 07:34:42;;;;;;;7.03;2.92;;;19.90;99.90;;;;;;4092709;28;20031;-71
2022/06/07 07:36:48;;;;;;;6.15;3.10;;;20.00;99.90;;;;;;4092908;28;20031;-71
2022/06/07 07:38:49;;;;;;;5.55;2.72;;;20.00;99.90;;;;;;4093490;28;20120;-71
2022/06/07 07:40:51;;;;;;;4.80;3.13;;;20.10;99.90;;;;;;4092366;29;20039;-70
2022/06/07 07:42:51;;;;;;;5.63;3.00;;;20.10;99.90;;;;;;4076279;29;20027;-70
2022/06/07 07:44:52;;;;;;;6.25;3.38;;;20.10;99.90;;;;;;4093415;28;20178;-71
2022/06/07 07:46:54;;;;;;;4.93;3.00;;;20.10;99.90;;;;;;4092643;28;20035;-71
2022/06/07 07:48:56;;;;;;;8.55;3.45;;;20.30;99.90;;;;;;4092814;28;20050;-71
2022/06/07 07:51:02;;;;;;;5.78;3.08;;;20.30;99.90;;;;;;4074157;29;20048;-71
2022/06/07 07:53:03;;;;;;;5.43;2.78;;;20.30;99.90;;;;;;4093101;28;20043;-71
2022/06/07 07:55:05;;;;;;;4.82;2.90;;;20.30;99.90;;;;;;4093100;28;20059;-71
2022/06/07 07:57:05;;;;;;;5.90;3.20;;;20.40;99.90;;;;;;4092835;28;20047;-71
2022/06/07 07:59:08;;;;;;;4.53;2.90;;;20.40;99.90;;;;;;4093513;28;20054;-71
2022/06/07 08:01:23;;;;;;;4.93;2.67;;;20.40;99.90;;;;;;4092039;28;20042;-71
2022/06/07 08:03:26;;;;;;;5.63;2.95;;;20.50;99.90;;;;;;4092556;28;20039;-71
2022/06/07 08:05:26;;;;;;;5.50;2.88;;;20.50;99.90;;;;;;4092894;28;20039;-71
2022/06/07 08:07:27;;;;;;;3.45;2.45;;;20.60;99.90;;;;;;4092728;28;20502;-70
2022/06/07 08:09:27;;;;;;;7.63;2.53;;;20.70;99.90;;;;;;4092950;28;20513;-70
2022/06/07 08:11:32;;;;;;;3.40;2.55;;;20.70;99.90;;;;;;4092296;28;20046;-71
2022/06/07 08:13:33;;;;;;;5.00;2.47;;;20.80;99.90;;;;;;4091896;28;20039;-71
2022/06/07 08:15:35;;;;;;;5.18;2.75;;;20.80;99.90;;;;;;4073934;29;20094;-72
2022/06/07 08:17:35;;;;;;;3.92;2.30;;;20.90;99.90;;;;;;4091242;28;20777;-71
2022/06/07 08:19:36;;;;;;;4.43;2.17;;;20.90;99.90;;;;;;4090205;28;20051;-70
2022/06/07 08:21:38;;;;;;;4.45;1.80;;;20.90;99.90;;;;;;4089832;28;20308;-71
2022/06/07 08:23:39;;;;;;;4.35;2.15;;;21.00;99.90;;;;;;4092428;28;20047;-71
2022/06/07 08:25:39;;;;;;;3.10;2.10;;;21.10;99.90;;;;;;4092534;28;20418;-71
2022/06/07 08:27:40;;;;;;;3.95;2.25;;;21.10;99.90;;;;;;4092918;28;20043;-71
2022/06/07 08:29:41;;;;;;;4.82;2.38;;;21.20;99.90;;;;;;4092773;28;20118;-71
2022/06/07 08:31:42;;;;;;;5.70;2.22;;;21.20;99.90;;;;;;4091723;28;20487;-71
2022/06/07 08:38:30;;;;;;;2.97;2.10;;;21.10;99.90;;;;;;4091659;28;20043;-71
2022/06/07 08:40:39;;;;;;;3.85;1.67;;;21.20;99.90;;;;;;4092061;28;20130;-71
2022/06/07 08:42:58;;;;;;;2.55;1.70;;;21.10;99.90;;;;;;4091707;28;20340;-71
2022/06/07 08:45:16;;;;;;;2.53;1.48;;;21.10;99.90;;;;;;4092197;28;20471;-70
2022/06/07 08:47:37;;;;;;;6.00;2.00;;;21.20;99.90;;;;;;4076459;29;20542;-70
2022/06/07 08:49:38;;;;;;;4.88;1.58;;;21.30;99.90;;;;;;4077823;29;20031;-71
2022/06/07 08:51:51;;;;;;;3.78;1.60;;;21.30;99.90;;;;;;4094923;28;20035;-71
2022/06/07 08:53:58;;;;;;;4.80;2.03;;;21.30;99.90;;;;;;4094971;28;20043;-71
2022/06/07 08:56:01;;;;;;;3.42;1.65;;;21.30;99.90;;;;;;4093587;28;20042;-71
2022/06/07 08:58:24;;;;;;;4.70;2.10;;;21.40;99.90;;;;;;4095696;28;20043;-71
2022/06/07 09:00:31;;;;;;;5.40;1.80;;;21.40;99.90;;;;;;4092708;28;20122;-70
2022/06/07 09:03:02;;;;;;;4.13;1.90;;;21.30;99.90;;;;;;4094488;28;20083;-70
2022/06/07 09:05:03;;;;;;;4.28;2.00;;;21.30;99.90;;;;;;4076651;29;20035;-71
2022/06/07 09:07:11;;;;;;;2.92;1.55;;;21.20;99.90;;;;;;4096209;28;20051;-71
2022/06/07 09:09:13;;;;;;;4.43;1.98;;;21.10;99.90;;;;;;4096689;28;20115;-71
2022/06/07 09:13:44;;;;;;;3.45;1.80;;;21.00;99.90;;;;;;4096010;28;20023;-71
2022/06/07 09:15:51;;;;;;;3.22;1.50;;;21.00;99.90;;;;;;4096366;28;20434;-71
2022/06/07 09:17:57;;;;;;;2.33;1.35;;;20.90;99.90;;;;;;4096781;29;20031;-71
2022/06/07 09:19:58;;;;;;;2.55;1.45;;;20.90;99.90;;;;;;4098028;28;20344;-71
2022/06/07 09:22:01;;;;;;;9.30;1.73;;;20.90;99.90;;;;;;4095907;28;20102;-71
2022/06/07 09:24:02;;;;;;;4.85;1.80;;;20.80;99.90;;;;;;4094399;28;20040;-71
2022/06/07 09:26:37;;;;;;;3.97;1.70;;;20.60;99.90;;;;;;4096087;28;20097;-72
2022/06/07 09:28:38;;;;;;;3.85;1.50;;;20.70;99.90;;;;;;4070318;28;20019;-72
2022/06/07 09:30:44;;;;;;;3.75;1.50;;;20.80;99.90;;;;;;4096150;28;20038;-72
2022/06/07 09:32:49;;;;;;;3.78;1.50;;;20.80;99.90;;;;;;4094960;28;20042;-71
2022/06/07 09:35:03;;;;;;;3.47;1.52;;;20.80;99.90;;;;;;4069780;28;20140;-72
2022/06/07 09:37:15;;;;;;;4.70;1.80;;;20.80;99.90;;;;;;4095714;28;20042;-72
2022/06/07 09:39:25;;;;;;;3.60;1.60;;;20.80;99.90;;;;;;4095955;28;20045;-72
2022/06/07 09:41:37;;;;;;;5.40;1.50;;;20.90;99.90;;;;;;4095603;29;20062;-71
2022/06/07 09:43:44;;;;;;;6.18;1.60;;;21.00;99.90;;;;;;4095892;28;20042;-72
2022/06/07 09:45:44;;;;;;;4.10;1.63;;;21.10;99.90;;;;;;4096068;29;20057;-72
2022/06/07 09:47:45;;;;;;;4.07;1.38;;;21.10;99.10;;;;;;4095834;28;20126;-71
2022/06/07 09:50:05;;;;;;;4.65;1.27;;;21.20;99.90;;;;;;4094987;28;20367;-72
2022/06/07 09:52:24;;;;;;;1.75;1.00;;;21.30;99.90;;;;;;4094934;28;20434;-71
2022/06/07 09:54:25;;;;;;;3.10;0.98;;;21.40;99.40;;;;;;4096015;28;20051;-72
2022/06/07 09:56:28;;;;;;;3.33;1.15;;;21.50;99.50;;;;;;4095835;28;20483;-72
2022/06/07 09:58:56;;;;;;;1.33;0.93;;;21.60;99.60;;;;;;4096253;28;20047;-71
2022/06/07 10:01:30;;;;;;;4.32;1.60;;;21.60;97.80;;;;;;4097667;28;20090;-71
2022/06/07 10:03:46;;;;;;;2.35;1.30;;;21.70;98.40;;;;;;4095263;28;20115;-69
2022/06/07 10:06:08;;;;;;;1.83;1.05;;;21.60;99.00;;;;;;4095450;28;20398;-70
2022/06/07 10:08:11;;;;;;;3.03;1.30;;;21.70;99.10;;;;;;4094351;28;20446;-70
2022/06/07 10:10:37;;;;;;;3.00;1.25;;;21.80;99.20;;;;;;4095091;28;20047;-70
2022/06/07 10:13:09;;;;;;;3.10;1.10;;;21.90;99.20;;;;;;4095545;28;20114;-70
2022/06/07 10:15:21;;;;;;;4.85;1.40;;;21.90;99.50;;;;;;4093667;28;20486;-72
2022/06/07 10:17:34;;;;;;;2.40;1.00;;;22.00;99.80;;;;;;4078239;29;20329;-70
2022/06/07 10:19:44;;;;;;;4.13;1.15;;;22.10;99.80;;;;;;4092478;28;20042;-71
2022/06/07 10:21:59;;;;;;;3.70;1.02;;;22.10;99.00;;;;;;4093579;28;20396;-71
2022/06/07 10:24:12;;;;;;;4.18;1.30;;;22.10;98.90;;;;;;4094060;28;20490;-70
2022/06/07 10:26:57;;;;;;;4.82;1.38;;;22.10;99.20;;;;;;4095107;28;20039;-70
2022/06/07 10:29:23;;;;;;;1.23;0.80;;;22.10;99.90;;;;;;4078317;29;20027;-70
2022/06/07 10:31:42;;;;;;;2.75;1.10;;;22.20;99.90;;;;;;4094237;29;20023;-71
2022/06/07 10:34:00;;;;;;;5.43;1.55;;;22.20;99.20;;;;;;4092758;28;20035;-72
2022/06/07 10:36:20;;;;;;;3.47;1.00;;;22.20;98.90;;;;;;4094767;28;20050;-72
2022/06/07 10:38:43;;;;;;;3.65;1.52;;;22.30;99.90;;;;;;4094448;28;20028;-72
2022/06/07 10:40:56;;;;;;;2.55;1.00;;;22.20;98.40;;;;;;4082450;28;20110;-72
2022/06/07 10:43:04;;;;;;;4.05;1.20;;;22.30;98.90;;;;;;4094197;28;20023;-71
2022/06/07 10:45:22;;;;;;;4.43;1.25;;;22.20;99.60;;;;;;4092801;28;20035;-72
2022/06/07 10:47:51;;;;;;;4.53;1.30;;;22.20;99.00;;;;;;4095370;28;20052;-72
2022/06/07 10:49:58;;;;;;;3.30;1.00;;;22.20;97.90;;;;;;4092245;28;20478;-72
2022/06/07 10:52:20;;;;;;;3.78;1.20;;;22.20;99.70;;;;;;4096543;28;20337;-71
2022/06/07 10:54:29;;;;;;;2.00;1.10;;;22.10;99.90;;;;;;4094867;28;20158;-72
2022/06/07 10:56:35;;;;;;;3.20;1.08;;;22.00;99.90;;;;;;4085311;28;20036;-72
2022/06/07 10:58:40;;;;;;;1.27;1.10;;;22.10;99.90;;;;;;4095204;29;20047;-72
2022/06/07 11:00:52;;;;;;;3.10;1.25;;;22.10;99.00;;;;;;4092745;28;20049;-71
2022/06/07 11:03:04;;;;;;;1.42;0.88;;;22.10;98.70;;;;;;4095998;28;20031;-71
2022/06/07 11:10:07;;;;;;;3.25;1.25;;;22.20;99.10;;;;;;4093978;28;20035;-69